Time;durP1;ratioP1;P1;durP2;ratioP2;P2;SDS_P1;SDS_P2;PMS_P1;PMS_P2;Temp;Humidity;BMP_temperature;BMP_pressure;BME280_temperature;BME280_humidity;BME280_pressure;Samples;Min_cycle;Max_cycle;Signal;HPM_P1;HPM_P2
2023/01/17 03:03:10;;;;;;;14.55;6.13;;;;;;;-1.74;92.43;98203.59;4958059;22;1344877;-42
2023/01/17 03:05:49;;;;;;;12.65;5.70;;;;;;;-1.74;92.49;98208.22;5007924;28;20148;-43
2023/01/17 03:08:18;;;;;;;15.65;6.50;;;;;;;-1.75;92.58;98203.94;5015760;28;20057;-42
2023/01/17 03:10:45;;;;;;;12.25;5.60;;;;;;;-1.75;92.62;98202.03;5006768;28;20068;-44
2023/01/17 03:13:11;;;;;;;12.73;4.90;;;;;;;-1.74;92.24;98209.03;5012871;28;20045;-42
2023/01/17 03:15:39;;;;;;;15.55;5.50;;;;;;;-1.77;92.56;98193.41;5009694;28;20570;-44
2023/01/17 03:18:12;;;;;;;8.00;4.82;;;;;;;-1.77;92.54;98192.63;5007887;28;20060;-46
2023/01/17 03:20:40;;;;;;;11.07;5.35;;;;;;;-1.79;92.61;98206.50;5003871;28;20050;-48
2023/01/17 03:23:07;;;;;;;9.30;4.82;;;;;;;-1.80;92.48;98187.84;5006377;28;20049;-43
2023/01/17 03:25:34;;;;;;;8.45;5.32;;;;;;;-1.79;92.85;98187.50;5004250;28;20082;-44
2023/01/17 03:28:00;;;;;;;10.88;4.90;;;;;;;-1.78;92.50;98191.03;5005550;28;20052;-44
2023/01/17 03:30:27;;;;;;;13.73;6.53;;;;;;;-1.78;92.74;98193.72;5006563;28;20037;-44
2023/01/17 03:32:54;;;;;;;7.68;4.50;;;;;;;-1.78;92.67;98191.03;5006162;28;20081;-45
2023/01/17 03:35:20;;;;;;;8.95;5.50;;;;;;;-1.77;92.59;98184.50;5006569;28;20049;-42
2023/01/17 03:37:47;;;;;;;12.20;5.45;;;;;;;-1.78;92.62;98194.53;5005862;28;20451;-43
2023/01/17 03:40:14;;;;;;;10.55;4.93;;;;;;;-1.77;92.35;98187.19;5022968;28;20458;-43
2023/01/17 03:42:41;;;;;;;10.15;4.68;;;;;;;-1.76;92.78;98186.88;5005703;28;20053;-43
2023/01/17 03:45:08;;;;;;;7.28;5.22;;;;;;;-1.74;92.83;98183.81;4996277;28;20046;-43
2023/01/17 03:47:35;;;;;;;10.98;4.75;;;;;;;-1.75;92.92;98190.38;5006904;28;20049;-46
2023/01/17 03:50:02;;;;;;;8.85;4.45;;;;;;;-1.76;92.86;98186.06;5007593;28;20136;-43
2023/01/17 03:52:29;;;;;;;12.70;4.43;;;;;;;-1.78;92.64;98196.44;5006675;28;20104;-43
2023/01/17 03:54:56;;;;;;;9.98;3.78;;;;;;;-1.78;92.51;98196.44;5008784;28;20041;-43
2023/01/17 03:57:22;;;;;;;6.70;4.10;;;;;;;-1.76;92.78;98196.91;5007001;28;20530;-43
2023/01/17 03:59:49;;;;;;;9.63;5.18;;;;;;;-1.77;92.75;98189.91;5005599;28;20046;-43
2023/01/17 04:02:16;;;;;;;7.28;4.00;;;;;;;-1.79;92.44;98198.34;5009105;28;20053;-50
2023/01/17 04:04:43;;;;;;;9.60;4.63;;;;;;;-1.80;92.70;98198.69;4988165;28;20776;-43
2023/01/17 04:07:09;;;;;;;12.75;5.00;;;;;;;-1.78;92.69;98210.00;5006595;28;20081;-44
2023/01/17 04:09:36;;;;;;;9.57;5.88;;;;;;;-1.81;92.76;98213.38;5007077;28;20045;-46
2023/01/17 04:12:03;;;;;;;8.25;5.50;;;;;;;-1.85;92.45;98208.59;5007053;28;20042;-43
2023/01/17 04:14:30;;;;;;;12.93;7.20;;;;;;;-1.89;92.73;98212.28;5008163;28;20050;-49
2023/01/17 04:16:56;;;;;;;14.32;8.13;;;;;;;-1.94;92.56;98210.56;5011081;28;20073;-46
2023/01/17 04:19:23;;;;;;;16.38;8.30;;;;;;;-1.98;92.53;98201.47;5002714;28;20046;-43
2023/01/17 04:21:50;;;;;;;15.60;8.45;;;;;;;-2.00;92.52;98206.44;5011669;28;20052;-43
2023/01/17 04:24:16;;;;;;;19.75;9.35;;;;;;;-2.05;92.70;98209.31;5012289;28;20041;-43
2023/01/17 04:26:43;;;;;;;16.70;8.80;;;;;;;-2.07;92.40;98210.75;5014612;28;20129;-44
2023/01/17 04:29:10;;;;;;;19.75;8.65;;;;;;;-2.10;92.37;98206.78;4991878;28;20054;-44
2023/01/17 04:31:37;;;;;;;17.05;7.57;;;;;;;-2.08;92.72;98209.97;5014151;28;20057;-44
2023/01/17 04:34:04;;;;;;;23.15;8.25;;;;;;;-2.08;92.56;98209.97;5011554;28;20050;-43
2023/01/17 04:36:31;;;;;;;19.52;8.90;;;;;;;-2.09;92.73;98202.16;5010956;28;20084;-44
2023/01/17 04:38:57;;;;;;;14.75;7.70;;;;;;;-2.10;92.76;98212.22;5010570;28;20057;-43
2023/01/17 04:41:24;;;;;;;14.77;8.52;;;;;;;-2.10;92.52;98220.34;5010655;28;20045;-43
2023/01/17 04:43:51;;;;;;;21.95;8.68;;;;;;;-2.12;92.33;98214.44;5011312;28;20483;-43
2023/01/17 04:46:17;;;;;;;17.50;9.13;;;;;;;-2.15;92.51;98225.13;5011242;28;20100;-43
2023/01/17 04:48:44;;;;;;;20.98;9.10;;;;;;;-2.19;92.67;98219.56;5020311;28;20042;-46
2023/01/17 04:51:11;;;;;;;25.45;9.25;;;;;;;-2.19;92.34;98216.03;5025962;28;20137;-44
2023/01/17 04:53:37;;;;;;;22.00;9.60;;;;;;;-2.24;92.60;98210.81;5025781;28;20049;-43
2023/01/17 04:56:04;;;;;;;19.13;9.45;;;;;;;-2.27;92.66;98223.09;5010456;28;20034;-45
2023/01/17 04:58:32;;;;;;;12.82;8.05;;;;;;;-2.29;92.86;98225.31;5010072;28;20045;-51
2023/01/17 05:01:03;;;;;;;12.88;7.13;;;;;;;-2.28;92.63;98232.34;4991715;28;20740;-43
2023/01/17 05:03:31;;;;;;;14.32;6.93;;;;;;;-2.27;92.86;98233.94;5011885;28;20049;-42
2023/01/17 05:05:58;;;;;;;9.63;5.32;;;;;;;-2.27;92.47;98238.53;4991825;28;20144;-43
2023/01/17 05:08:25;;;;;;;7.82;4.50;;;;;;;-2.25;92.68;98242.53;5005620;28;20100;-43
2023/01/17 05:10:53;;;;;;;11.75;4.97;;;;;;;-2.22;92.85;98236.47;5009230;28;20042;-42
2023/01/17 05:13:20;;;;;;;7.28;3.88;;;;;;;-2.18;92.85;98234.72;5009577;28;20057;-43
2023/01/17 05:15:46;;;;;;;7.90;3.95;;;;;;;-2.17;92.90;98236.28;5008007;28;20133;-46
2023/01/17 05:18:15;;;;;;;9.65;4.30;;;;;;;-2.16;92.87;98229.75;5016432;28;20042;-44
2023/01/17 05:20:42;;;;;;;9.10;4.88;;;;;;;-2.14;92.75;98226.72;5007757;28;20145;-44
2023/01/17 05:23:10;;;;;;;9.57;4.50;;;;;;;-2.12;93.07;98230.69;5010211;28;20553;-44
2023/01/17 05:25:36;;;;;;;9.07;5.57;;;;;;;-2.12;92.90;98230.69;5008232;28;20140;-43
2023/01/17 05:28:03;;;;;;;14.55;5.63;;;;;;;-2.11;93.03;98226.88;5013271;28;20104;-47
2023/01/17 05:30:31;;;;;;;7.47;4.50;;;;;;;-2.10;93.05;98222.25;5009587;28;20045;-46
2023/01/17 05:32:58;;;;;;;15.30;5.00;;;;;;;-2.12;92.76;98219.84;5012709;28;20053;-47
2023/01/17 05:35:27;;;;;;;9.30;4.10;;;;;;;-2.14;92.92;98222.09;5008588;28;20053;-43
2023/01/17 05:37:56;;;;;;;7.90;3.97;;;;;;;-2.13;92.95;98220.97;5007296;28;20184;-45
2023/01/17 05:40:28;;;;;;;6.22;3.65;;;;;;;-2.13;92.84;98222.88;4987762;28;20060;-43
2023/01/17 05:42:56;;;;;;;9.50;3.72;;;;;;;-2.12;93.15;98224.50;5010334;28;20076;-44
2023/01/17 05:45:25;;;;;;;13.85;4.28;;;;;;;-2.13;92.93;98226.41;5004524;28;20049;-44
2023/01/17 05:47:54;;;;;;;10.23;3.75;;;;;;;-2.12;92.94;98227.19;5008650;28;20658;-45
2023/01/17 05:50:33;;;;;;;6.50;3.90;;;;;;;-2.13;92.93;98237.25;5010495;28;20045;-43
2023/01/17 05:53:10;;;;;;;10.05;3.67;;;;;;;-2.13;92.87;98234.53;5005736;28;20543;-45
2023/01/17 05:55:37;;;;;;;6.55;3.63;;;;;;;-2.13;92.96;98239.97;5018767;28;20059;-42
2023/01/17 05:58:06;;;;;;;6.13;3.58;;;;;;;-2.13;92.78;98228.31;5025689;28;20576;-47
2023/01/17 06:00:33;;;;;;;10.73;3.70;;;;;;;-2.13;92.84;98247.28;5009532;28;20096;-43
2023/01/17 06:03:00;;;;;;;8.27;3.80;;;;;;;-2.12;92.72;98236.09;5009972;28;20075;-42
2023/01/17 06:05:28;;;;;;;5.93;2.92;;;;;;;-2.12;92.81;98236.09;5009759;28;20053;-43
2023/01/17 06:07:55;;;;;;;10.55;4.18;;;;;;;-2.14;92.87;98235.63;5009612;28;20125;-45
2023/01/17 06:10:22;;;;;;;6.95;3.72;;;;;;;-2.12;92.72;98246.19;5009550;28;20061;-46
2023/01/17 06:12:58;;;;;;;8.98;4.50;;;;;;;-2.12;92.95;98248.88;5023694;28;20566;-44
2023/01/17 06:15:25;;;;;;;8.40;5.55;;;;;;;-2.12;92.99;98243.47;5010055;28;20050;-43
2023/01/17 06:17:52;;;;;;;6.75;3.58;;;;;;;-2.10;92.84;98244.72;5009285;28;20046;-44
2023/01/17 06:20:18;;;;;;;6.65;3.75;;;;;;;-2.11;92.91;98253.97;5009225;28;20376;-44
2023/01/17 06:22:45;;;;;;;10.38;4.53;;;;;;;-2.11;93.12;98256.69;5009464;28;20125;-43
2023/01/17 06:25:12;;;;;;;6.03;3.72;;;;;;;-2.11;93.21;98245.84;5008662;28;20479;-43
2023/01/17 06:27:40;;;;;;;8.05;4.22;;;;;;;-2.11;93.18;98250.47;5006823;28;20045;-43
2023/01/17 06:30:07;;;;;;;5.28;3.70;;;;;;;-2.09;93.01;98253.66;5011804;28;20068;-44
2023/01/17 06:32:34;;;;;;;11.57;3.75;;;;;;;-2.10;92.87;98239.31;5003870;28;20046;-49
2023/01/17 06:35:01;;;;;;;7.40;4.38;;;;;;;-2.11;93.03;98248.56;5012184;28;20732;-49
2023/01/17 06:37:27;;;;;;;10.13;3.60;;;;;;;-2.10;92.75;98244.72;5010852;28;20048;-43
2023/01/17 06:39:54;;;;;;;4.72;3.22;;;;;;;-2.12;92.97;98252.38;5005566;28;20795;-48
2023/01/17 06:42:21;;;;;;;8.02;3.97;;;;;;;-2.09;93.11;98251.72;5004536;28;20502;-43
2023/01/17 06:44:47;;;;;;;9.63;4.55;;;;;;;-2.07;93.08;98249.50;5006417;28;20056;-44
2023/01/17 06:47:14;;;;;;;9.70;4.40;;;;;;;-2.09;92.81;98257.16;5007439;28;20112;-43
2023/01/17 06:49:42;;;;;;;6.30;3.40;;;;;;;-2.09;92.72;98261.81;5007499;28;20092;-43
2023/01/17 06:52:08;;;;;;;7.45;4.20;;;;;;;-2.14;92.61;98270.88;5013166;28;20562;-47
2023/01/17 06:54:35;;;;;;;8.80;4.18;;;;;;;-2.17;92.84;98266.09;5007701;28;20132;-45
2023/01/17 06:57:02;;;;;;;5.88;3.75;;;;;;;-2.19;92.87;98279.19;5005364;28;20064;-43
2023/01/17 06:59:28;;;;;;;11.98;4.18;;;;;;;-2.19;92.77;98276.47;5008847;28;20050;-44
2023/01/17 07:01:55;;;;;;;9.80;3.58;;;;;;;-2.20;93.09;98290.34;5007573;28;20080;-45
2023/01/17 07:04:22;;;;;;;5.63;3.72;;;;;;;-2.20;92.96;98285.72;5007607;28;20495;-47
2023/01/17 07:06:49;;;;;;;9.88;4.38;;;;;;;-2.20;92.97;98288.44;5009612;28;20048;-44
2023/01/17 07:09:17;;;;;;;12.80;4.28;;;;;;;-2.19;93.22;98284.59;5008443;28;20069;-45
2023/01/17 07:11:44;;;;;;;11.05;4.47;;;;;;;-2.15;93.09;98292.91;5007886;28;20112;-46
2023/01/17 07:14:13;;;;;;;10.32;4.38;;;;;;;-2.14;92.77;98297.19;5007830;28;20053;-51
2023/01/17 07:16:44;;;;;;;8.18;4.88;;;;;;;-2.16;93.08;98302.13;5007756;28;20065;-44
2023/01/17 07:19:11;;;;;;;11.75;5.15;;;;;;;-2.19;93.04;98300.88;5008491;28;20049;-44
2023/01/17 07:21:37;;;;;;;11.15;4.68;;;;;;;-2.21;92.97;98300.41;4987818;28;20512;-43
2023/01/17 07:24:08;;;;;;;9.90;5.15;;;;;;;-2.24;93.09;98314.59;5001308;28;20092;-43
2023/01/17 07:26:36;;;;;;;9.40;5.10;;;;;;;-2.27;93.04;98307.09;5006379;28;20056;-47
2023/01/17 07:29:04;;;;;;;14.88;5.20;;;;;;;-2.28;92.80;98312.84;5012660;28;20074;-46
2023/01/17 07:31:36;;;;;;;12.38;5.43;;;;;;;-2.34;92.92;98314.91;5003696;28;20037;-47
2023/01/17 07:34:03;;;;;;;10.38;6.03;;;;;;;-2.36;92.93;98317.16;4996204;28;20074;-47
2023/01/17 07:36:31;;;;;;;8.77;5.20;;;;;;;-2.36;92.82;98317.16;5004502;28;20057;-48
2023/01/17 07:38:58;;;;;;;12.10;5.45;;;;;;;-2.38;92.97;98324.00;5008029;28;20442;-44
2023/01/17 07:41:33;;;;;;;8.15;5.25;;;;;;;-2.39;93.00;98339.47;5009761;28;20123;-46
2023/01/17 07:44:00;;;;;;;14.13;7.05;;;;;;;-2.34;93.19;98335.78;5015143;28;20045;-45
2023/01/17 07:46:30;;;;;;;10.18;6.28;;;;;;;-2.38;93.02;98341.03;5005660;28;20061;-42
2023/01/17 07:48:59;;;;;;;15.43;7.32;;;;;;;-2.39;93.06;98333.25;4986043;28;20050;-43
2023/01/17 07:51:26;;;;;;;12.43;6.05;;;;;;;-2.40;92.86;98326.22;5004941;28;20045;-43
2023/01/17 07:53:53;;;;;;;9.30;5.80;;;;;;;-2.43;92.97;98333.06;5008116;28;20046;-44
2023/01/17 07:56:20;;;;;;;8.25;5.50;;;;;;;-2.44;92.89;98342.34;5016781;28;20509;-43
2023/01/17 07:58:47;;;;;;;10.10;5.47;;;;;;;-2.41;93.16;98341.69;5007650;28;20056;-43
2023/01/17 08:01:15;;;;;;;10.13;5.15;;;;;;;-2.40;93.11;98337.06;5006520;28;20829;-49
2023/01/17 08:03:44;;;;;;;9.77;4.95;;;;;;;-2.39;92.96;98349.50;5008359;28;20648;-43
2023/01/17 08:06:24;;;;;;;10.77;5.38;;;;;;;-2.38;92.83;98351.09;5007136;28;20045;-45
2023/01/17 08:08:55;;;;;;;8.90;5.40;;;;;;;-2.41;93.04;98355.25;4985235;28;20132;-46
2023/01/17 08:11:22;;;;;;;15.27;5.47;;;;;;;-2.41;93.15;98368.78;5000637;28;20038;-43
2023/01/17 08:13:56;;;;;;;16.02;4.93;;;;;;;-2.42;92.71;98379.94;5006042;28;20046;-44
2023/01/17 08:16:24;;;;;;;11.10;5.65;;;;;;;-2.41;92.88;98379.63;5007524;28;20042;-44
2023/01/17 08:18:52;;;;;;;15.55;6.53;;;;;;;-2.39;93.18;98377.41;5008156;28;20132;-44
2023/01/17 08:21:19;;;;;;;13.27;5.20;;;;;;;-2.39;92.65;98382.00;5006605;28;20056;-42
2023/01/17 08:23:47;;;;;;;9.15;5.80;;;;;;;-2.40;92.85;98386.63;5005216;28;20042;-44
2023/01/17 08:26:21;;;;;;;11.38;5.88;;;;;;;-2.40;92.60;98375.78;5002109;28;20048;-44
2023/01/17 08:28:55;;;;;;;11.38;6.07;;;;;;;-2.38;92.94;98376.25;5004545;28;20056;-44
2023/01/17 08:31:23;;;;;;;11.13;5.72;;;;;;;-2.41;92.77;98376.91;5006063;28;20042;-45
2023/01/17 08:33:50;;;;;;;11.30;5.25;;;;;;;-2.43;93.01;98371.00;5005465;28;20044;-47
2023/01/17 08:36:17;;;;;;;13.35;6.45;;;;;;;-2.46;92.64;98377.06;5015241;28;20045;-43
2023/01/17 08:38:44;;;;;;;12.93;5.60;;;;;;;-2.48;92.69;98382.78;5004819;28;20088;-44
2023/01/17 08:41:11;;;;;;;11.90;5.65;;;;;;;-2.48;92.69;98393.63;5003903;28;20057;-45
2023/01/17 08:43:38;;;;;;;13.43;7.00;;;;;;;-2.48;92.76;98390.13;5006481;28;20057;-42
2023/01/17 08:46:05;;;;;;;15.23;6.50;;;;;;;-2.49;92.66;98396.66;5019099;28;20054;-45
2023/01/17 08:48:32;;;;;;;12.35;5.75;;;;;;;-2.52;92.69;98397.31;5002827;28;20111;-48
2023/01/17 08:51:00;;;;;;;13.00;5.50;;;;;;;-2.50;92.86;98401.28;4998056;28;20041;-42
2023/01/17 08:53:28;;;;;;;12.18;5.65;;;;;;;-2.51;92.87;98396.97;5006890;28;20487;-47
2023/01/17 08:55:59;;;;;;;23.92;8.80;;;;;;;-2.53;92.67;98393.78;5001801;28;20057;-45
2023/01/17 08:58:28;;;;;;;14.57;6.47;;;;;;;-2.52;93.08;98394.59;5006339;28;20507;-44
2023/01/17 09:01:03;;;;;;;13.80;6.38;;;;;;;-2.52;92.92;98405.44;5007266;28;20783;-48
2023/01/17 09:03:31;;;;;;;15.43;9.25;;;;;;;-2.51;92.92;98396.97;5004149;28;20489;-45
2023/01/17 09:06:12;;;;;;;19.90;7.45;;;;;;;-2.50;92.67;98406.69;5008308;28;20376;-45
2023/01/17 09:08:39;;;;;;;16.58;6.13;;;;;;;-2.46;93.17;98409.56;5004438;28;20049;-43
2023/01/17 09:11:08;;;;;;;11.75;6.70;;;;;;;-2.46;92.92;98409.56;5007940;28;20112;-44
2023/01/17 09:13:36;;;;;;;13.23;7.30;;;;;;;-2.42;93.01;98426.00;5006953;28;20568;-43
2023/01/17 09:16:04;;;;;;;16.02;6.75;;;;;;;-2.42;93.09;98420.56;5020809;28;20050;-44
2023/01/17 09:18:33;;;;;;;9.95;6.13;;;;;;;-2.41;92.90;98433.00;5005039;28;20515;-48
2023/01/17 09:21:14;;;;;;;14.48;6.75;;;;;;;-2.42;92.89;98432.22;5010609;28;20042;-43
2023/01/17 09:23:42;;;;;;;14.20;7.57;;;;;;;-2.41;92.77;98439.22;5009030;28;20411;-47
2023/01/17 09:26:24;;;;;;;11.88;6.00;;;;;;;-2.42;92.69;98445.75;5005597;28;20411;-44
2023/01/17 09:28:51;;;;;;;17.25;7.53;;;;;;;-2.38;92.87;98438.56;5006154;28;20038;-44
2023/01/17 09:31:22;;;;;;;12.38;6.32;;;;;;;-2.38;92.83;98444.00;5008399;28;20124;-43
2023/01/17 09:33:50;;;;;;;15.70;6.80;;;;;;;-2.38;93.04;98449.41;5009347;28;20056;-45
2023/01/17 09:36:17;;;;;;;15.13;7.63;;;;;;;-2.34;92.73;98450.38;5012229;28;20050;-43
2023/01/17 09:38:44;;;;;;;16.55;7.32;;;;;;;-2.30;92.83;98458.69;5019532;28;20084;-49
2023/01/17 09:41:21;;;;;;;8.85;6.75;;;;;;;-2.28;92.83;98457.25;5007954;28;20041;-45
2023/01/17 09:43:58;;;;;;;10.48;5.22;;;;;;;-2.26;92.66;98467.78;5003268;28;20454;-44
2023/01/17 09:46:31;;;;;;;12.75;6.10;;;;;;;-2.27;92.42;98458.84;5005106;28;20108;-45
2023/01/17 09:49:28;;;;;;;13.65;6.82;;;;;;;-2.26;92.93;98456.94;5007328;28;20060;-45
2023/01/17 09:51:55;;;;;;;17.67;8.57;;;;;;;-2.20;92.68;98458.38;5004323;28;20050;-44
2023/01/17 09:54:24;;;;;;;13.77;7.10;;;;;;;-2.17;92.80;98463.94;5007852;28;20580;-43
2023/01/17 09:57:18;;;;;;;12.60;7.63;;;;;;;-2.17;92.51;98471.31;5003863;28;20124;-49
2023/01/17 10:00:02;;;;;;;15.60;7.03;;;;;;;-2.15;92.76;98477.19;5006934;28;20066;-47
2023/01/17 10:02:48;;;;;;;14.10;5.85;;;;;;;-2.13;92.42;98488.50;5006246;28;20057;-45
2023/01/17 10:05:26;;;;;;;13.88;6.47;;;;;;;-2.10;92.78;98483.25;5007529;28;20262;-50
2023/01/17 10:08:13;;;;;;;16.90;6.75;;;;;;;-2.06;92.47;98491.53;5006884;28;20045;-43
2023/01/17 10:10:53;;;;;;;11.10;6.05;;;;;;;-2.02;92.66;98493.31;5004787;28;20163;-52
2023/01/17 10:13:26;;;;;;;11.15;5.85;;;;;;;-1.97;92.69;98497.78;5004659;28;20046;-50
2023/01/17 10:15:59;;;;;;;11.13;5.72;;;;;;;-1.95;92.62;98498.25;5006695;28;20045;-44
2023/01/17 10:18:44;;;;;;;12.20;6.28;;;;;;;-1.91;92.86;98496.53;5003354;28;20793;-45
2023/01/17 10:21:23;;;;;;;10.85;5.78;;;;;;;-1.89;92.59;98497.78;4994268;28;20051;-48
2023/01/17 10:24:16;;;;;;;12.35;5.75;;;;;;;-1.86;92.73;98494.44;4989211;28;20041;-46
2023/01/17 10:26:47;;;;;;;;;;;;;;;-1.84;92.56;98507.69;4981289;28;20049;-44
2023/01/17 10:29:17;;;;;;;13.50;6.18;;;;;;;-1.80;92.41;98510.56;5005001;28;19928;-49
2023/01/17 10:31:57;;;;;;;;;;;;;;;-1.75;92.40;98499.56;5028212;28;20140;-46
2023/01/17 10:34:31;;;;;;;12.93;6.55;;;;;;;-1.73;92.55;98500.81;5024839;28;19925;-43
2023/01/17 10:37:16;;;;;;;12.30;5.78;;;;;;;-1.69;92.44;98509.09;5006313;28;20045;-45
2023/01/17 10:39:46;;;;;;;12.65;6.50;;;;;;;-1.64;92.41;98506.25;5006309;28;20042;-44
2023/01/17 10:42:23;;;;;;;17.95;6.70;;;;;;;-1.60;92.49;98499.88;5006860;28;20553;-43
2023/01/17 10:45:06;;;;;;;13.68;7.10;;;;;;;-1.53;92.72;98507.50;5004983;28;20057;-45
2023/01/17 10:47:36;;;;;;;13.43;6.60;;;;;;;-1.50;92.60;98523.94;5007723;28;20045;-43
2023/01/17 10:50:10;;;;;;;12.13;5.72;;;;;;;-1.47;92.39;98528.75;5008737;28;20129;-44
2023/01/17 10:52:52;;;;;;;15.70;6.10;;;;;;;-1.43;92.28;98526.97;5006606;28;20045;-44
2023/01/17 10:55:52;;;;;;;12.93;6.07;;;;;;;-1.39;92.37;98519.78;5013973;28;20927;-53
2023/01/17 10:58:19;;;;;;;12.13;6.22;;;;;;;-1.36;92.47;98512.94;4999599;28;20056;-46
2023/01/17 11:00:59;;;;;;;12.90;5.97;;;;;;;-1.34;92.25;98526.97;5005106;28;20046;-46
2023/01/17 11:03:27;;;;;;;11.65;5.65;;;;;;;-1.28;92.43;98528.41;5002439;28;20790;-49
2023/01/17 11:06:23;;;;;;;11.38;6.07;;;;;;;-1.24;92.47;98526.63;5016797;28;20419;-45
2023/01/17 11:08:56;;;;;;;15.70;4.97;;;;;;;-1.19;92.28;98531.13;5006323;28;20139;-44
2023/01/17 11:11:30;;;;;;;;;;;;;;;-1.16;92.35;98517.66;5004577;28;20045;-43
2023/01/17 11:14:04;;;;;;;11.77;5.00;;;;;;;-1.13;92.18;98522.47;4997734;28;20015;-43
2023/01/17 11:16:31;;;;;;;9.27;5.03;;;;;;;-1.09;92.35;98518.00;5005514;28;20162;-44
2023/01/17 11:19:16;;;;;;;16.20;5.50;;;;;;;-1.05;92.21;98518.94;5008070;28;20042;-45
2023/01/17 11:21:53;;;;;;;11.02;5.97;;;;;;;-1.01;92.22;98514.47;4998465;28;20108;-48
2023/01/17 11:24:28;;;;;;;12.23;5.57;;;;;;;-0.95;92.29;98517.78;5006834;28;20132;-43
2023/01/17 11:26:56;;;;;;;12.63;5.43;;;;;;;-0.91;92.19;98519.53;5005424;28;20057;-45
2023/01/17 11:29:27;;;;;;;14.07;5.70;;;;;;;-0.85;92.24;98515.50;5007227;28;20049;-45
2023/01/17 11:31:57;;;;;;;8.65;4.78;;;;;;;-0.79;92.24;98510.69;5006965;28;20054;-44
2023/01/17 11:34:28;;;;;;;10.82;5.25;;;;;;;-0.75;92.31;98526.03;5008857;28;20038;-44
2023/01/17 11:37:18;;;;;;;8.80;5.05;;;;;;;-0.70;92.19;98525.06;5004661;28;20108;-50
2023/01/17 11:39:48;;;;;;;7.22;4.32;;;;;;;-0.66;92.14;98526.00;5005439;28;20554;-42
2023/01/17 11:42:36;;;;;;;5.97;4.32;;;;;;;-0.64;92.06;98527.25;5021109;28;20060;-44
2023/01/17 11:45:24;;;;;;;8.75;4.90;;;;;;;-0.60;92.03;98521.97;5004831;28;20450;-44
2023/01/17 11:48:15;;;;;;;11.65;4.40;;;;;;;-0.55;92.07;98523.72;5004680;28;20658;-51
2023/01/17 11:50:52;;;;;;;10.15;4.82;;;;;;;-0.50;92.38;98518.13;5005296;28;20056;-48
2023/01/17 11:53:42;;;;;;;11.98;6.97;;;;;;;-0.47;92.09;98526.41;5005781;28;20478;-45
2023/01/17 11:56:17;;;;;;;11.55;5.22;;;;;;;-0.43;91.96;98523.84;5005633;28;20059;-47
2023/01/17 11:58:46;;;;;;;14.75;5.55;;;;;;;-0.42;91.96;98515.34;5001470;28;20053;-45
2023/01/17 12:01:40;;;;;;;6.88;3.90;;;;;;;-0.36;92.14;98513.22;4997309;28;20530;-44
2023/01/17 12:04:22;;;;;;;12.73;6.30;;;;;;;-0.34;92.13;98516.41;5007038;28;20049;-47
2023/01/17 12:07:10;;;;;;;10.25;5.05;;;;;;;-0.31;92.05;98502.97;5003312;28;20042;-47
2023/01/17 12:10:05;;;;;;;9.95;5.65;;;;;;;-0.28;92.11;98504.25;5004941;28;20050;-48
2023/01/17 12:15:50;;;;;;;11.45;4.57;;;;;;;-0.23;92.11;98506.75;5003637;28;20050;-44
2023/01/17 12:18:29;;;;;;;10.23;5.47;;;;;;;-0.19;92.05;98513.97;5008045;28;20792;-44
2023/01/17 12:20:57;;;;;;;9.63;5.00;;;;;;;-0.15;91.93;98517.59;5005849;28;20137;-46
2023/01/17 12:24:01;;;;;;;10.63;4.20;;;;;;;-0.13;92.12;98509.91;5004933;28;21117;-43
2023/01/17 12:26:44;;;;;;;10.50;4.93;;;;;;;-0.12;92.03;98503.34;5000597;28;20049;-45
2023/01/17 12:29:41;;;;;;;7.28;3.95;;;;;;;-0.08;91.98;98519.81;5007340;28;20049;-45
2023/01/17 12:32:49;;;;;;;10.98;4.28;;;;;;;-0.07;91.82;98521.38;4994573;28;20435;-45
2023/01/17 12:35:21;;;;;;;10.32;4.38;;;;;;;-0.06;92.07;98512.13;4963368;28;20050;-43
2023/01/17 12:37:55;;;;;;;8.07;4.28;;;;;;;-0.04;91.95;98520.72;4967231;28;20071;-50
2023/01/17 12:40:33;;;;;;;7.47;4.30;;;;;;;0.00;91.96;98532.56;4989816;28;20068;-44
2023/01/17 12:43:34;;;;;;;3.53;3.10;;;;;;;0.02;92.17;98518.63;5009636;28;20439;-45
2023/01/17 12:46:06;;;;;;;9.68;3.70;;;;;;;0.04;92.18;98516.34;5008496;28;20151;-48
2023/01/17 12:48:39;;;;;;;;;;;;;;;0.06;91.97;98524.97;5011380;28;20104;-43
2023/01/17 12:51:17;;;;;;;8.90;4.22;;;;;;;0.09;91.78;98516.97;5010037;28;19932;-49
2023/01/17 12:54:05;;;;;;;9.85;4.72;;;;;;;0.12;92.06;98527.19;4999330;28;20049;-43
2023/01/17 12:56:38;;;;;;;21.15;9.95;;;;;;;0.18;92.01;98535.97;5010412;28;20111;-46
2023/01/17 12:59:23;;;;;;;5.90;3.90;;;;;;;0.23;92.14;98531.13;5008979;28;20046;-47
2023/01/17 13:01:57;;;;;;;6.28;3.70;;;;;;;0.27;92.14;98537.47;5003092;28;20123;-43
2023/01/17 13:04:40;;;;;;;6.10;3.33;;;;;;;0.31;91.71;98530.25;5006989;28;20039;-44
2023/01/17 13:07:52;;;;;;;6.47;3.80;;;;;;;0.34;92.07;98540.50;4988963;28;20077;-43
2023/01/17 13:10:40;;;;;;;11.07;4.18;;;;;;;0.38;92.39;98530.50;5010154;28;20490;-44
2023/01/17 13:13:27;;;;;;;9.88;4.68;;;;;;;0.43;92.15;98529.50;4998332;28;20058;-44
2023/01/17 13:15:59;;;;;;;6.78;3.80;;;;;;;0.46;92.18;98528.84;5008089;28;20049;-43
2023/01/17 13:18:28;;;;;;;9.48;4.18;;;;;;;0.51;92.71;98532.16;5025191;28;20050;-46
2023/01/17 13:21:13;;;;;;;5.53;3.53;;;;;;;0.57;92.29;98536.28;5006893;28;20053;-45
2023/01/17 13:23:52;;;;;;;5.40;3.28;;;;;;;0.61;92.56;98531.75;5009144;28;20050;-44
2023/01/17 13:26:39;;;;;;;9.52;3.80;;;;;;;0.68;92.69;98533.16;5009458;28;20045;-41
2023/01/17 13:29:43;;;;;;;6.90;3.88;;;;;;;0.74;92.39;98526.38;5001035;28;20108;-43
2023/01/17 13:32:29;;;;;;;6.43;2.88;;;;;;;0.80;92.45;98519.56;5009816;28;20141;-50
2023/01/17 13:35:21;;;;;;;6.20;3.60;;;;;;;0.84;92.31;98523.25;5010158;28;20054;-47
2023/01/17 13:38:11;;;;;;;8.47;4.77;;;;;;;0.91;92.58;98531.66;5007227;28;20060;-45
2023/01/17 13:40:49;;;;;;;5.30;3.45;;;;;;;0.96;92.49;98526.00;4986482;28;20358;-44
2023/01/17 13:43:29;;;;;;;7.70;4.55;;;;;;;1.03;92.35;98534.44;5009416;28;20050;-44
2023/01/17 13:45:58;;;;;;;6.55;3.78;;;;;;;1.11;92.32;98531.59;5009532;28;20061;-46
2023/01/17 13:48:28;;;;;;;5.90;2.65;;;;;;;1.20;92.75;98532.31;5009409;28;20053;-43
2023/01/17 13:50:58;;;;;;;7.68;2.60;;;;;;;1.28;92.65;98533.34;5008439;28;20045;-43
2023/01/17 13:53:27;;;;;;;3.75;2.20;;;;;;;1.35;92.47;98530.06;5008076;28;20050;-42
2023/01/17 13:56:17;;;;;;;5.28;2.50;;;;;;;1.42;92.42;98533.81;5009216;28;20060;-42
2023/01/17 13:58:50;;;;;;;4.65;2.50;;;;;;;1.49;92.64;98539.50;5008742;28;20050;-42
2023/01/17 14:01:23;;;;;;;7.75;2.97;;;;;;;1.60;92.65;98535.22;5008885;28;20503;-42
2023/01/17 14:03:52;;;;;;;16.65;2.22;;;;;;;1.67;92.58;98535.44;5008679;28;20046;-42
2023/01/17 14:06:37;;;;;;;7.57;4.15;;;;;;;1.74;92.67;98534.88;5007114;28;20057;-43
2023/01/17 14:09:06;;;;;;;4.40;2.85;;;;;;;1.79;92.38;98532.72;5009246;28;20467;-42
2023/01/17 14:11:36;;;;;;;6.38;2.42;;;;;;;1.84;92.28;98531.69;5008679;28;20064;-43
2023/01/17 14:14:40;;;;;;;8.32;3.30;;;;;;;1.87;92.50;98535.66;5008792;28;20130;-42
2023/01/17 14:17:24;;;;;;;6.10;1.98;;;;;;;1.87;92.24;98541.13;5006390;28;20454;-43
2023/01/17 14:20:14;;;;;;;5.60;2.58;;;;;;;1.83;92.44;98533.63;5001433;28;20051;-45
2023/01/17 14:22:51;;;;;;;8.52;3.33;;;;;;;1.88;92.43;98540.75;4997324;28;20068;-49
2023/01/17 14:25:26;;;;;;;7.63;2.95;;;;;;;1.90;92.54;98554.88;5008984;28;20077;-45
2023/01/17 14:27:59;;;;;;;8.57;3.15;;;;;;;1.91;92.54;98547.50;5007069;28;20057;-43
2023/01/17 14:30:32;;;;;;;5.47;2.22;;;;;;;1.92;92.04;98540.88;5008550;28;20054;-45
2023/01/17 14:33:03;;;;;;;6.50;2.28;;;;;;;1.90;91.99;98548.63;5008335;28;20065;-45
2023/01/17 14:35:55;;;;;;;7.22;2.75;;;;;;;1.88;92.08;98542.72;5001794;28;20062;-43
2023/01/17 14:38:25;;;;;;;3.97;2.38;;;;;;;1.85;91.90;98546.94;5008092;28;20052;-50
2023/01/17 14:40:58;;;;;;;10.93;2.63;;;;;;;1.78;91.67;98542.03;5008116;28;20784;-43
2023/01/17 14:43:27;;;;;;;3.40;2.10;;;;;;;1.66;91.22;98544.75;5007820;28;20099;-44
2023/01/17 14:46:02;;;;;;;5.22;2.08;;;;;;;1.54;91.39;98536.56;5008105;28;20128;-42
2023/01/17 14:48:29;;;;;;;7.25;1.98;;;;;;;1.46;91.16;98540.19;5008050;28;20092;-42
2023/01/17 14:50:58;;;;;;;3.72;1.52;;;;;;;1.41;91.27;98536.88;5007050;28;20396;-42
2023/01/17 14:53:30;;;;;;;1.60;0.80;;;;;;;1.35;91.40;98539.03;5008062;28;20125;-43
2023/01/17 14:56:10;;;;;;;1.98;1.40;;;;;;;1.32;91.22;98528.03;5008071;28;20054;-42
2023/01/17 14:58:38;;;;;;;2.25;1.50;;;;;;;1.30;90.98;98536.50;5015969;28;20056;-44
2023/01/17 15:01:19;;;;;;;2.95;1.40;;;;;;;1.28;91.13;98527.88;5011378;28;20086;-46
2023/01/17 15:03:51;;;;;;;5.10;2.05;;;;;;;1.24;91.04;98532.44;5007278;28;20089;-43